sensor_id;sensor_type;location;lat;lon;timestamp;pressure;altitude;pressure_sealevel;temperature;humidity
75359;BME280;64046;51.978;5.934;2023-02-22T00:02:19;101445.88;;;12.57;100.00
75359;BME280;64046;51.978;5.934;2023-02-22T00:04:54;101449.28;;;12.59;100.00
75359;BME280;64046;51.978;5.934;2023-02-22T00:07:25;101452.31;;;12.70;100.00
75359;BME280;64046;51.978;5.934;2023-02-22T00:09:55;101454.25;;;12.65;100.00
75359;BME280;64046;51.978;5.934;2023-02-22T00:12:26;101457.38;;;12.54;100.00
75359;BME280;64046;51.978;5.934;2023-02-22T00:14:56;101453.28;;;12.47;100.00
75359;BME280;64046;51.978;5.934;2023-02-22T00:17:25;101457.09;;;12.40;100.00
75359;BME280;64046;51.978;5.934;2023-02-22T00:19:55;101449.50;;;12.32;100.00
75359;BME280;64046;51.978;5.934;2023-02-22T00:22:27;101451.63;;;12.44;100.00
75359;BME280;64046;51.978;5.934;2023-02-22T00:24:56;101450.31;;;12.34;100.00
75359;BME280;64046;51.978;5.934;2023-02-22T00:27:26;101437.09;;;12.36;100.00
75359;BME280;64046;51.978;5.934;2023-02-22T00:29:55;101450.38;;;12.33;100.00
75359;BME280;64046;51.978;5.934;2023-02-22T00:32:25;101453.00;;;12.33;100.00
75359;BME280;64046;51.978;5.934;2023-02-22T00:34:55;101446.03;;;12.32;100.00
75359;BME280;64046;51.978;5.934;2023-02-22T00:37:27;101446.88;;;12.32;100.00
75359;BME280;64046;51.978;5.934;2023-02-22T00:40:04;101446.66;;;12.38;100.00
75359;BME280;64046;51.978;5.934;2023-02-22T00:42:33;101442.63;;;12.29;100.00
75359;BME280;64046;51.978;5.934;2023-02-22T00:45:03;101447.88;;;12.29;100.00
75359;BME280;64046;51.978;5.934;2023-02-22T00:47:34;101447.94;;;12.28;100.00
75359;BME280;64046;51.978;5.934;2023-02-22T00:50:04;101450.13;;;12.39;100.00
75359;BME280;64046;51.978;5.934;2023-02-22T00:52:38;101436.53;;;12.50;100.00
75359;BME280;64046;51.978;5.934;2023-02-22T00:55:13;101440.50;;;12.38;100.00
75359;BME280;64046;51.978;5.934;2023-02-22T00:57:43;101435.97;;;12.21;100.00
75359;BME280;64046;51.978;5.934;2023-02-22T01:00:16;101437.44;;;12.28;99.85
75359;BME280;64046;51.978;5.934;2023-02-22T01:02:47;101433.72;;;12.11;100.00
75359;BME280;64046;51.978;5.934;2023-02-22T01:05:18;101439.81;;;12.12;100.00
75359;BME280;64046;51.978;5.934;2023-02-22T01:07:50;101435.25;;;12.17;100.00
75359;BME280;64046;51.978;5.934;2023-02-22T01:10:22;101425.97;;;12.08;100.00
75359;BME280;64046;51.978;5.934;2023-02-22T01:12:54;101425.97;;;12.08;100.00
75359;BME280;64046;51.978;5.934;2023-02-22T01:15:26;101423.47;;;12.05;100.00
75359;BME280;64046;51.978;5.934;2023-02-22T01:17:57;101423.47;;;12.05;100.00
75359;BME280;64046;51.978;5.934;2023-02-22T01:20:27;101415.88;;;11.98;100.00
75359;BME280;64046;51.978;5.934;2023-02-22T01:23:01;101415.53;;;12.07;100.00
75359;BME280;64046;51.978;5.934;2023-02-22T01:25:34;101416.69;;;12.00;100.00
75359;BME280;64046;51.978;5.934;2023-02-22T01:28:05;101412.22;;;12.02;100.00
75359;BME280;64046;51.978;5.934;2023-02-22T01:30:35;101417.41;;;12.03;100.00
75359;BME280;64046;51.978;5.934;2023-02-22T01:33:06;101405.56;;;12.15;100.00
75359;BME280;64046;51.978;5.934;2023-02-22T01:35:38;101405.94;;;12.06;100.00
75359;BME280;64046;51.978;5.934;2023-02-22T01:38:11;101402.59;;;12.02;100.00
75359;BME280;64046;51.978;5.934;2023-02-22T01:40:46;101406.00;;;12.04;100.00
75359;BME280;64046;51.978;5.934;2023-02-22T01:43:19;101402.75;;;11.98;100.00
75359;BME280;64046;51.978;5.934;2023-02-22T01:45:55;101402.69;;;11.99;100.00
75359;BME280;64046;51.978;5.934;2023-02-22T01:48:31;101393.84;;;12.02;100.00
75359;BME280;64046;51.978;5.934;2023-02-22T01:51:06;101386.09;;;11.99;100.00
75359;BME280;64046;51.978;5.934;2023-02-22T01:53:44;101388.72;;;11.99;100.00
75359;BME280;64046;51.978;5.934;2023-02-22T01:56:16;101387.69;;;11.81;100.00
75359;BME280;64046;51.978;5.934;2023-02-22T01:58:49;101391.00;;;11.84;100.00
75359;BME280;64046;51.978;5.934;2023-02-22T02:01:20;101384.09;;;11.82;100.00
75359;BME280;64046;51.978;5.934;2023-02-22T02:03:51;101385.84;;;11.83;100.00
75359;BME280;64046;51.978;5.934;2023-02-22T02:06:23;101377.28;;;11.77;100.00
75359;BME280;64046;51.978;5.934;2023-02-22T02:11:42;101382.81;;;11.92;100.00
75359;BME280;64046;51.978;5.934;2023-02-22T02:14:12;101383.13;;;11.84;100.00
75359;BME280;64046;51.978;5.934;2023-02-22T02:16:44;101373.94;;;11.96;99.66
75359;BME280;64046;51.978;5.934;2023-02-22T02:19:19;101380.00;;;11.98;99.23
75359;BME280;64046;51.978;5.934;2023-02-22T02:22:09;101372.81;;;12.02;98.42
75359;BME280;64046;51.978;5.934;2023-02-22T02:28:11;101367.69;;;11.99;98.93
75359;BME280;64046;51.978;5.934;2023-02-22T02:31:03;101362.50;;;11.97;98.76
75359;BME280;64046;51.978;5.934;2023-02-22T02:33:42;101360.13;;;11.91;99.36
75359;BME280;64046;51.978;5.934;2023-02-22T02:36:16;101361.16;;;11.87;99.88
75359;BME280;64046;51.978;5.934;2023-02-22T02:38:54;101348.66;;;11.92;99.47
75359;BME280;64046;51.978;5.934;2023-02-22T02:41:27;101349.06;;;11.83;99.78
75359;BME280;64046;51.978;5.934;2023-02-22T02:44:00;101347.34;;;11.82;99.62
75359;BME280;64046;51.978;5.934;2023-02-22T02:46:34;101342.44;;;11.74;99.85
75359;BME280;64046;51.978;5.934;2023-02-22T02:49:10;101340.72;;;11.73;99.74
75359;BME280;64046;51.978;5.934;2023-02-22T02:51:43;101331.25;;;11.69;100.00
75359;BME280;64046;51.978;5.934;2023-02-22T02:54:14;101327.16;;;11.62;100.00
75359;BME280;64046;51.978;5.934;2023-02-22T02:56:44;101329.66;;;11.65;100.00
75359;BME280;64046;51.978;5.934;2023-02-22T02:59:24;101324.53;;;11.84;99.63
75359;BME280;64046;51.978;5.934;2023-02-22T03:02:03;101320.44;;;11.76;100.00
75359;BME280;64046;51.978;5.934;2023-02-22T03:04:47;101325.50;;;11.81;99.82
75359;BME280;64046;51.978;5.934;2023-02-22T03:07:32;101320.19;;;11.83;99.60
75359;BME280;64046;51.978;5.934;2023-02-22T03:10:20;101312.25;;;11.84;99.81
75359;BME280;64046;51.978;5.934;2023-02-22T03:12:59;101322.03;;;11.81;100.00
75359;BME280;64046;51.978;5.934;2023-02-22T03:15:40;101312.50;;;11.78;99.58
75359;BME280;64046;51.978;5.934;2023-02-22T03:18:16;101314.78;;;11.65;99.86
75359;BME280;64046;51.978;5.934;2023-02-22T03:20:57;101314.66;;;11.68;99.92
75359;BME280;64046;51.978;5.934;2023-02-22T03:23:31;101313.97;;;11.63;100.00
75359;BME280;64046;51.978;5.934;2023-02-22T03:26:06;101317.47;;;11.64;100.00
75359;BME280;64046;51.978;5.934;2023-02-22T03:28:40;101308.91;;;11.58;100.00
75359;BME280;64046;51.978;5.934;2023-02-22T03:31:12;101297.09;;;11.48;100.00
75359;BME280;64046;51.978;5.934;2023-02-22T03:33:47;101307.59;;;11.48;100.00
75359;BME280;64046;51.978;5.934;2023-02-22T03:36:25;101305.31;;;11.61;100.00
75359;BME280;64046;51.978;5.934;2023-02-22T03:38:59;101307.13;;;11.59;100.00
75359;BME280;64046;51.978;5.934;2023-02-22T03:41:30;101309.88;;;11.56;100.00
75359;BME280;64046;51.978;5.934;2023-02-22T03:44:05;101302.75;;;11.59;100.00
75359;BME280;64046;51.978;5.934;2023-02-22T03:46:37;101313.75;;;11.47;100.00
75359;BME280;64046;51.978;5.934;2023-02-22T03:49:10;101300.81;;;11.42;100.00
75359;BME280;64046;51.978;5.934;2023-02-22T03:51:44;101301.78;;;11.40;100.00
75359;BME280;64046;51.978;5.934;2023-02-22T03:54:14;101293.53;;;11.27;100.00
75359;BME280;64046;51.978;5.934;2023-02-22T03:56:49;101294.66;;;11.43;100.00
75359;BME280;64046;51.978;5.934;2023-02-22T03:59:23;101298.44;;;11.36;100.00
75359;BME280;64046;51.978;5.934;2023-02-22T04:01:55;101288.63;;;11.19;100.00
75359;BME280;64046;51.978;5.934;2023-02-22T04:04:25;101279.84;;;11.20;100.00
75359;BME280;64046;51.978;5.934;2023-02-22T04:06:57;101284.56;;;11.33;100.00
75359;BME280;64046;51.978;5.934;2023-02-22T04:09:28;101281.59;;;11.20;100.00
75359;BME280;64046;51.978;5.934;2023-02-22T04:11:58;101280.56;;;11.24;100.00
75359;BME280;64046;51.978;5.934;2023-02-22T04:14:28;101281.47;;;11.23;100.00
75359;BME280;64046;51.978;5.934;2023-02-22T04:16:57;101279.72;;;11.23;100.00
75359;BME280;64046;51.978;5.934;2023-02-22T04:19:26;101285.88;;;11.22;100.00
75359;BME280;64046;51.978;5.934;2023-02-22T04:21:58;101276.56;;;11.36;100.00
75359;BME280;64046;51.978;5.934;2023-02-22T04:24:32;101277.03;;;11.25;100.00
75359;BME280;64046;51.978;5.934;2023-02-22T04:27:01;101276.22;;;11.23;100.00
75359;BME280;64046;51.978;5.934;2023-02-22T04:29:32;101276.47;;;11.17;100.00
75359;BME280;64046;51.978;5.934;2023-02-22T04:32:03;101278.13;;;11.19;100.00
75359;BME280;64046;51.978;5.934;2023-02-22T04:34:32;101271.28;;;11.15;100.00
75359;BME280;64046;51.978;5.934;2023-02-22T04:37:04;101276.09;;;11.26;100.00
75359;BME280;64046;51.978;5.934;2023-02-22T04:39:35;101268.97;;;11.07;100.00
75359;BME280;64046;51.978;5.934;2023-02-22T04:42:04;101267.19;;;11.08;100.00
75359;BME280;64046;51.978;5.934;2023-02-22T04:44:34;101266.22;;;11.11;100.00
75359;BME280;64046;51.978;5.934;2023-02-22T04:47:04;101260.16;;;11.08;100.00
75359;BME280;64046;51.978;5.934;2023-02-22T04:49:33;101255.88;;;11.06;100.00
75359;BME280;64046;51.978;5.934;2023-02-22T04:52:05;101256.22;;;11.20;100.00
75359;BME280;64046;51.978;5.934;2023-02-22T04:54:37;101256.00;;;11.03;100.00
75359;BME280;64046;51.978;5.934;2023-02-22T04:57:06;101244.75;;;11.01;100.00
75359;BME280;64046;51.978;5.934;2023-02-22T04:59:36;101240.34;;;11.01;100.00
75359;BME280;64046;51.978;5.934;2023-02-22T05:02:05;101239.44;;;11.02;100.00
75359;BME280;64046;51.978;5.934;2023-02-22T05:04:37;101236.56;;;11.08;100.00
75359;BME280;64046;51.978;5.934;2023-02-22T05:07:09;101228.63;;;11.10;100.00
75359;BME280;64046;51.978;5.934;2023-02-22T05:09:38;101235.59;;;10.89;100.00
75359;BME280;64046;51.978;5.934;2023-02-22T05:12:07;101229.66;;;10.84;100.00
75359;BME280;64046;51.978;5.934;2023-02-22T05:14:37;101234.22;;;10.79;100.00
75359;BME280;64046;51.978;5.934;2023-02-22T05:17:06;101228.13;;;10.78;100.00
75359;BME280;64046;51.978;5.934;2023-02-22T05:19:35;101217.72;;;10.77;100.00
75359;BME280;64046;51.978;5.934;2023-02-22T05:22:08;101222.91;;;10.78;100.00
75359;BME280;64046;51.978;5.934;2023-02-22T05:24:37;101225.56;;;10.77;100.00
75359;BME280;64046;51.978;5.934;2023-02-22T05:27:07;101223.97;;;10.72;100.00
75359;BME280;64046;51.978;5.934;2023-02-22T05:29:37;101224.81;;;10.73;100.00
75359;BME280;64046;51.978;5.934;2023-02-22T05:32:06;101222.28;;;10.71;100.00
75359;BME280;64046;51.978;5.934;2023-02-22T05:34:37;101218.03;;;10.69;100.00
75359;BME280;64046;51.978;5.934;2023-02-22T05:37:09;101212.34;;;10.80;100.00
75359;BME280;64046;51.978;5.934;2023-02-22T05:39:38;101209.22;;;10.70;100.00
75359;BME280;64046;51.978;5.934;2023-02-22T05:42:07;101208.38;;;10.69;100.00
75359;BME280;64046;51.978;5.934;2023-02-22T05:44:37;101203.75;;;10.76;100.00
75359;BME280;64046;51.978;5.934;2023-02-22T05:47:06;101201.81;;;10.81;100.00
75359;BME280;64046;51.978;5.934;2023-02-22T05:49:35;101205.50;;;10.76;100.00
75359;BME280;64046;51.978;5.934;2023-02-22T05:52:04;101205.69;;;10.71;100.00
75359;BME280;64046;51.978;5.934;2023-02-22T05:54:36;101201.69;;;10.84;100.00
75359;BME280;64046;51.978;5.934;2023-02-22T05:57:05;101200.59;;;10.68;100.00
75359;BME280;64046;51.978;5.934;2023-02-22T05:59:35;101199.38;;;10.77;100.00
75359;BME280;64046;51.978;5.934;2023-02-22T06:02:04;101191.31;;;10.81;100.00
75359;BME280;64046;51.978;5.934;2023-02-22T06:04:33;101191.03;;;10.89;100.00
75359;BME280;64046;51.978;5.934;2023-02-22T06:07:03;101177.94;;;10.89;100.00
75359;BME280;64046;51.978;5.934;2023-02-22T06:09:32;101183.16;;;10.89;100.00
75359;BME280;64046;51.978;5.934;2023-02-22T06:12:04;101187.78;;;11.04;100.00
75359;BME280;64046;51.978;5.934;2023-02-22T06:14:34;101190.34;;;10.84;100.00
75359;BME280;64046;51.978;5.934;2023-02-22T06:17:03;101193.81;;;10.84;100.00
75359;BME280;64046;51.978;5.934;2023-02-22T06:19:32;101196.50;;;10.83;100.00
75359;BME280;64046;51.978;5.934;2023-02-22T06:22:01;101186.94;;;10.82;100.00
75359;BME280;64046;51.978;5.934;2023-02-22T06:24:30;101185.22;;;10.81;100.00
75359;BME280;64046;51.978;5.934;2023-02-22T06:27:03;101187.66;;;10.85;100.00
75359;BME280;64046;51.978;5.934;2023-02-22T06:29:33;101189.00;;;10.73;100.00
75359;BME280;64046;51.978;5.934;2023-02-22T06:32:02;101186.31;;;10.75;100.00
75359;BME280;64046;51.978;5.934;2023-02-22T06:34:32;101188.81;;;10.78;100.00
75359;BME280;64046;51.978;5.934;2023-02-22T06:37:01;101195.09;;;10.74;100.00
75359;BME280;64046;51.978;5.934;2023-02-22T06:39:30;101193.38;;;10.73;100.00
75359;BME280;64046;51.978;5.934;2023-02-22T06:41:59;101194.38;;;10.70;100.00
75359;BME280;64046;51.978;5.934;2023-02-22T06:44:31;101188.09;;;10.75;100.00
75359;BME280;64046;51.978;5.934;2023-02-22T06:47:01;101191.19;;;10.62;100.00
75359;BME280;64046;51.978;5.934;2023-02-22T06:49:30;101187.88;;;10.57;100.00
75359;BME280;64046;51.978;5.934;2023-02-22T06:51:59;101182.56;;;10.59;100.00
75359;BME280;64046;51.978;5.934;2023-02-22T06:54:28;101173.16;;;10.54;100.00
75359;BME280;64046;51.978;5.934;2023-02-22T06:56:58;101174.78;;;10.57;100.00
75359;BME280;64046;51.978;5.934;2023-02-22T06:59:27;101160.72;;;10.60;100.00
75359;BME280;64046;51.978;5.934;2023-02-22T07:01:59;101169.63;;;10.78;100.00
75359;BME280;64046;51.978;5.934;2023-02-22T07:04:29;101173.63;;;10.64;100.00
75359;BME280;64046;51.978;5.934;2023-02-22T07:06:58;101173.75;;;10.61;100.00
75359;BME280;64046;51.978;5.934;2023-02-22T07:09:27;101169.19;;;10.66;100.00
75359;BME280;64046;51.978;5.934;2023-02-22T07:11:56;101168.09;;;10.72;100.00
75359;BME280;64046;51.978;5.934;2023-02-22T07:14:26;101169.78;;;10.73;100.00
75359;BME280;64046;51.978;5.934;2023-02-22T07:16:55;101171.81;;;10.66;100.00
75359;BME280;64046;51.978;5.934;2023-02-22T07:19:27;101167.13;;;10.75;100.00
75359;BME280;64046;51.978;5.934;2023-02-22T07:21:56;101168.63;;;10.58;100.00
75359;BME280;64046;51.978;5.934;2023-02-22T07:24:25;101164.00;;;10.65;100.00
75359;BME280;64046;51.978;5.934;2023-02-22T07:26:55;101171.56;;;10.72;100.00
75359;BME280;64046;51.978;5.934;2023-02-22T07:29:25;101171.31;;;10.79;100.00
75359;BME280;64046;51.978;5.934;2023-02-22T07:31:54;101171.81;;;10.88;100.00
75359;BME280;64046;51.978;5.934;2023-02-22T07:34:24;101170.22;;;10.84;100.00
75359;BME280;64046;51.978;5.934;2023-02-22T07:36:55;101167.66;;;11.05;100.00
75359;BME280;64046;51.978;5.934;2023-02-22T07:39:25;101170.72;;;10.94;100.00
75359;BME280;64046;51.978;5.934;2023-02-22T07:41:54;101171.44;;;10.98;100.00
75359;BME280;64046;51.978;5.934;2023-02-22T07:44:25;101169.47;;;11.03;100.00
75359;BME280;64046;51.978;5.934;2023-02-22T07:46:54;101178.09;;;11.06;100.00
75359;BME280;64046;51.978;5.934;2023-02-22T07:49:23;101177.97;;;11.10;100.00
75359;BME280;64046;51.978;5.934;2023-02-22T07:51:55;101173.00;;;11.24;100.00
75359;BME280;64046;51.978;5.934;2023-02-22T07:54:24;101175.41;;;11.08;100.00
75359;BME280;64046;51.978;5.934;2023-02-22T07:56:53;101177.91;;;11.11;100.00
75359;BME280;64046;51.978;5.934;2023-02-22T07:59:22;101160.31;;;11.13;100.00
75359;BME280;64046;51.978;5.934;2023-02-22T08:01:52;101158.44;;;11.17;100.00
75359;BME280;64046;51.978;5.934;2023-02-22T08:04:21;101171.28;;;11.23;100.00
75359;BME280;64046;51.978;5.934;2023-02-22T08:06:50;101172.66;;;11.32;100.00
75359;BME280;64046;51.978;5.934;2023-02-22T08:09:22;101174.53;;;11.50;100.00
75359;BME280;64046;51.978;5.934;2023-02-22T08:11:51;101168.22;;;11.34;100.00
75359;BME280;64046;51.978;5.934;2023-02-22T08:14:20;101171.63;;;11.36;100.00
75359;BME280;64046;51.978;5.934;2023-02-22T08:16:49;101167.13;;;11.39;100.00
75359;BME280;64046;51.978;5.934;2023-02-22T08:19:19;101164.38;;;11.42;100.00
75359;BME280;64046;51.978;5.934;2023-02-22T08:21:48;101160.03;;;11.41;100.00
75359;BME280;64046;51.978;5.934;2023-02-22T08:24:17;101165.06;;;11.46;100.00
75359;BME280;64046;51.978;5.934;2023-02-22T08:26:49;101165.75;;;11.51;100.00
75359;BME280;64046;51.978;5.934;2023-02-22T08:29:18;101172.59;;;11.33;100.00
75359;BME280;64046;51.978;5.934;2023-02-22T08:31:52;101172.69;;;11.52;100.00
75359;BME280;64046;51.978;5.934;2023-02-22T08:34:21;101162.06;;;11.35;100.00
75359;BME280;64046;51.978;5.934;2023-02-22T08:36:50;101161.13;;;11.36;100.00
75359;BME280;64046;51.978;5.934;2023-02-22T08:39:20;101162.72;;;11.40;100.00
75359;BME280;64046;51.978;5.934;2023-02-22T08:41:51;101166.41;;;11.56;100.00
75359;BME280;64046;51.978;5.934;2023-02-22T08:44:21;101158.44;;;11.37;100.00
75359;BME280;64046;51.978;5.934;2023-02-22T08:46:50;101164.50;;;11.39;100.00
75359;BME280;64046;51.978;5.934;2023-02-22T08:49:20;101174.78;;;11.44;100.00
75359;BME280;64046;51.978;5.934;2023-02-22T08:51:49;101179.19;;;11.43;100.00
75359;BME280;64046;51.978;5.934;2023-02-22T08:54:19;101184.31;;;11.47;100.00
75359;BME280;64046;51.978;5.934;2023-02-22T08:56:51;101186.47;;;11.57;100.00
75359;BME280;64046;51.978;5.934;2023-02-22T08:59:20;101180.31;;;11.38;100.00
75359;BME280;64046;51.978;5.934;2023-02-22T09:01:49;101181.28;;;11.35;100.00
75359;BME280;64046;51.978;5.934;2023-02-22T09:04:19;101181.97;;;11.40;100.00
75359;BME280;64046;51.978;5.934;2023-02-22T09:06:49;101174.94;;;11.41;100.00
75359;BME280;64046;51.978;5.934;2023-02-22T09:09:18;101177.41;;;11.44;100.00
75359;BME280;64046;51.978;5.934;2023-02-22T09:11:47;101173.75;;;11.48;100.00
75359;BME280;64046;51.978;5.934;2023-02-22T09:14:19;101173.72;;;11.69;100.00
75359;BME280;64046;51.978;5.934;2023-02-22T09:16:49;101163.78;;;11.56;100.00
75359;BME280;64046;51.978;5.934;2023-02-22T09:19:18;101150.31;;;11.64;100.00
75359;BME280;64046;51.978;5.934;2023-02-22T09:21:51;101145.75;;;11.88;100.00
75359;BME280;64046;51.978;5.934;2023-02-22T09:24:21;101141.72;;;11.81;100.00
75359;BME280;64046;51.978;5.934;2023-02-22T09:26:50;101137.28;;;11.82;100.00
75359;BME280;64046;51.978;5.934;2023-02-22T09:29:25;101140.91;;;12.00;100.00
75359;BME280;64046;51.978;5.934;2023-02-22T09:31:55;101127.16;;;11.93;100.00
75359;BME280;64046;51.978;5.934;2023-02-22T09:34:25;101127.00;;;11.98;100.00
75359;BME280;64046;51.978;5.934;2023-02-22T09:36:56;101123.16;;;12.05;100.00
75359;BME280;64046;51.978;5.934;2023-02-22T09:39:25;101115.56;;;11.99;100.00
75359;BME280;64046;51.978;5.934;2023-02-22T09:42:00;101128.84;;;12.15;100.00
75359;BME280;64046;51.978;5.934;2023-02-22T09:44:37;101138.59;;;12.13;100.00
75359;BME280;64046;51.978;5.934;2023-02-22T09:47:14;101128.16;;;12.11;100.00
75359;BME280;64046;51.978;5.934;2023-02-22T09:49:55;101130.34;;;12.20;100.00
75359;BME280;64046;51.978;5.934;2023-02-22T09:52:29;101130.63;;;12.14;100.00
75359;BME280;64046;51.978;5.934;2023-02-22T09:55:07;101124.81;;;12.26;100.00
75359;BME280;64046;51.978;5.934;2023-02-22T09:57:39;101114.31;;;12.26;100.00
75359;BME280;64046;51.978;5.934;2023-02-22T10:00:17;101121.31;;;12.45;100.00
75359;BME280;64046;51.978;5.934;2023-02-22T10:02:51;101117.84;;;12.44;100.00
75359;BME280;64046;51.978;5.934;2023-02-22T10:05:28;101122.94;;;12.48;100.00
75359;BME280;64046;51.978;5.934;2023-02-22T10:08:04;101112.56;;;12.44;100.00
75359;BME280;64046;51.978;5.934;2023-02-22T10:10:36;101119.25;;;12.52;100.00
75359;BME280;64046;51.978;5.934;2023-02-22T10:13:14;101122.06;;;12.66;100.00
75359;BME280;64046;51.978;5.934;2023-02-22T10:15:55;101112.03;;;12.74;100.00
75359;BME280;64046;51.978;5.934;2023-02-22T10:18:41;101115.59;;;12.91;100.00
75359;BME280;64046;51.978;5.934;2023-02-22T10:21:22;101106.72;;;12.93;100.00
75359;BME280;64046;51.978;5.934;2023-02-22T10:24:10;101114.31;;;13.00;100.00
75359;BME280;64046;51.978;5.934;2023-02-22T10:26:44;101105.72;;;12.96;100.00
75359;BME280;64046;51.978;5.934;2023-02-22T10:29:21;101113.78;;;13.10;100.00
75359;BME280;64046;51.978;5.934;2023-02-22T10:32:03;101109.06;;;13.17;100.00
75359;BME280;64046;51.978;5.934;2023-02-22T10:34:38;101108.34;;;13.13;100.00
75359;BME280;64046;51.978;5.934;2023-02-22T10:37:18;101105.69;;;13.31;100.00
75359;BME280;64046;51.978;5.934;2023-02-22T10:39:49;101101.47;;;13.28;99.99
75359;BME280;64046;51.978;5.934;2023-02-22T10:42:23;101086.16;;;13.37;99.54
75359;BME280;64046;51.978;5.934;2023-02-22T10:44:53;101082.97;;;13.30;99.63
75359;BME280;64046;51.978;5.934;2023-02-22T10:47:25;101078.34;;;13.53;98.73
75359;BME280;64046;51.978;5.934;2023-02-22T10:49:57;101080.72;;;13.57;98.02
75359;BME280;64046;51.978;5.934;2023-02-22T10:52:28;101072.19;;;13.52;97.51
75359;BME280;64046;51.978;5.934;2023-02-22T10:55:01;101076.44;;;13.55;97.24
75359;BME280;64046;51.978;5.934;2023-02-22T10:57:34;101075.13;;;13.63;96.91
75359;BME280;64046;51.978;5.934;2023-02-22T11:00:18;101067.06;;;13.82;95.85
75359;BME280;64046;51.978;5.934;2023-02-22T11:02:56;101064.53;;;13.81;95.95
75359;BME280;64046;51.978;5.934;2023-02-22T11:05:29;101067.16;;;13.81;96.03
75359;BME280;64046;51.978;5.934;2023-02-22T11:08:23;101059.97;;;14.00;94.61
75359;BME280;64046;51.978;5.934;2023-02-22T11:10:55;101048.81;;;13.95;94.78
75359;BME280;64046;51.978;5.934;2023-02-22T11:13:27;101052.75;;;14.04;94.87
75359;BME280;64046;51.978;5.934;2023-02-22T11:15:58;101060.13;;;13.97;95.53
75359;BME280;64046;51.978;5.934;2023-02-22T11:18:33;101066.59;;;14.08;94.44
75359;BME280;64046;51.978;5.934;2023-02-22T11:21:05;101067.19;;;14.13;93.89
75359;BME280;64046;51.978;5.934;2023-02-22T11:23:39;101060.03;;;14.15;93.09
75359;BME280;64046;51.978;5.934;2023-02-22T11:26:10;101062.06;;;14.10;92.79
75359;BME280;64046;51.978;5.934;2023-02-22T11:28:42;101055.69;;;14.14;92.81
75359;BME280;64046;51.978;5.934;2023-02-22T11:31:16;101063.94;;;14.24;92.34
75359;BME280;64046;51.978;5.934;2023-02-22T11:33:52;101059.78;;;14.35;91.01
75359;BME280;64046;51.978;5.934;2023-02-22T11:36:30;101061.22;;;14.41;90.09
75359;BME280;64046;51.978;5.934;2023-02-22T11:39:03;101051.56;;;14.26;90.84
75359;BME280;64046;51.978;5.934;2023-02-22T11:41:36;101052.75;;;14.20;90.90
75359;BME280;64046;51.978;5.934;2023-02-22T11:44:20;101054.59;;;14.50;89.26
75359;BME280;64046;51.978;5.934;2023-02-22T11:46:52;101052.72;;;14.36;90.15
75359;BME280;64046;51.978;5.934;2023-02-22T11:49:32;101045.53;;;14.54;88.80
75359;BME280;64046;51.978;5.934;2023-02-22T11:52:13;101049.31;;;14.50;88.54
75359;BME280;64046;51.978;5.934;2023-02-22T11:55:05;101047.53;;;14.50;87.88
75359;BME280;64046;51.978;5.934;2023-02-22T11:57:50;101047.00;;;14.44;88.44
75359;BME280;64046;51.978;5.934;2023-02-22T12:00:25;101048.28;;;14.36;89.13
75359;BME280;64046;51.978;5.934;2023-02-22T12:03:23;101041.13;;;14.54;88.03
75359;BME280;64046;51.978;5.934;2023-02-22T12:06:06;101039.34;;;14.55;87.79
75359;BME280;64046;51.978;5.934;2023-02-22T12:08:49;101033.41;;;14.51;87.50
75359;BME280;64046;51.978;5.934;2023-02-22T12:11:24;101027.44;;;14.48;87.89
75359;BME280;64046;51.978;5.934;2023-02-22T12:14:20;101027.88;;;14.56;86.69
75359;BME280;64046;51.978;5.934;2023-02-22T12:17:06;101026.69;;;14.62;86.81
75359;BME280;64046;51.978;5.934;2023-02-22T12:19:38;101025.50;;;14.51;86.91
75359;BME280;64046;51.978;5.934;2023-02-22T12:22:19;101021.81;;;14.54;86.76
75359;BME280;64046;51.978;5.934;2023-02-22T12:24:54;101024.28;;;14.57;86.86
75359;BME280;64046;51.978;5.934;2023-02-22T12:27:29;101018.50;;;14.66;86.25
75359;BME280;64046;51.978;5.934;2023-02-22T12:30:03;101015.31;;;14.76;86.10
75359;BME280;64046;51.978;5.934;2023-02-22T12:32:38;101009.69;;;14.82;85.74
75359;BME280;64046;51.978;5.934;2023-02-22T12:35:13;101009.13;;;14.91;85.57
75359;BME280;64046;51.978;5.934;2023-02-22T12:37:53;101004.16;;;15.01;85.11
75359;BME280;64046;51.978;5.934;2023-02-22T12:40:32;101007.63;;;15.01;84.95
75359;BME280;64046;51.978;5.934;2023-02-22T12:43:07;100994.38;;;15.03;84.94
75359;BME280;64046;51.978;5.934;2023-02-22T12:45:45;100994.75;;;15.11;84.71
75359;BME280;64046;51.978;5.934;2023-02-22T12:48:25;100995.88;;;15.21;83.95
75359;BME280;64046;51.978;5.934;2023-02-22T12:51:10;100982.69;;;15.21;84.04
75359;BME280;64046;51.978;5.934;2023-02-22T12:53:53;100979.69;;;15.28;83.73
75359;BME280;64046;51.978;5.934;2023-02-22T12:56:28;100980.72;;;15.25;83.21
75359;BME280;64046;51.978;5.934;2023-02-22T12:59:03;100979.78;;;15.26;83.24
75359;BME280;64046;51.978;5.934;2023-02-22T13:01:38;100970.78;;;15.29;83.44
75359;BME280;64046;51.978;5.934;2023-02-22T13:04:09;100980.44;;;15.30;83.38
75359;BME280;64046;51.978;5.934;2023-02-22T13:06:45;100982.03;;;15.47;82.49
75359;BME280;64046;51.978;5.934;2023-02-22T13:09:43;100989.84;;;15.63;80.79
75359;BME280;64046;51.978;5.934;2023-02-22T13:12:18;100986.06;;;15.52;82.15
75359;BME280;64046;51.978;5.934;2023-02-22T13:15:00;100990.97;;;15.58;81.78
75359;BME280;64046;51.978;5.934;2023-02-22T13:17:40;101006.72;;;15.60;81.48
75359;BME280;64046;51.978;5.934;2023-02-22T13:20:16;100999.94;;;15.56;81.13